AirNav   Air Wisconsin pilot careers
 
 723 users online  

10D Winsted Municipal Airport
Winsted, Minnesota, USA

GOING TO WINSTED?


FAA INFORMATION EFFECTIVE 07 DECEMBER 2017

Location

FAA Identifier: 10D
Lat/Long: 44-56-59.8660N / 094-04-00.9030W
44-56.997767N / 094-04.015050W
44.9499628 / -94.0669175
(estimated)
Elevation: 1030 ft. / 314 m (estimated)
Variation: 04E (1985)
From city: 1 mile SW of WINSTED, MN
Time zone: UTC -6 (UTC -5 during Daylight Saving Time)
Zip code: 55395

Airport Operations

Airport use: Open to the public
Activation date: 11/1963
Control tower: no
ARTCC: MINNEAPOLIS CENTER
FSS: PRINCETON FLIGHT SERVICE STATION
NOTAMs facility: PNM (NOTAM-D service available)
Attendance: UNATNDD
Wind indicator: lighted
Segmented circle: no
Lights: SS-SR
Beacon: white-green (lighted land airport)
Operates sunset to sunrise.

Airport Communications

CTAF: 122.9
WX AWOS-3 at GYL (12 nm S): 119.625 (320-864-5830)
WX AWOS-3 at HCD (14 nm W): 118.525 (320-587-3343)
WX AWOS-3 at CFE (16 nm NE): 120.45 (763-684-0762)
WX AWOS-3 at MGG (18 nm N): 128.325 (320-963-3300)

Nearby radio navigation aids

VOR radial/distance  VOR name  Freq  Var
DWNr110/18.4DARWIN VORTAC109.0007E
FCMr285/27.6FLYING CLOUD VOR/DME117.7001E
GEPr242/31.7GOPHER VORTAC117.3006E
MSPr273/35.4MINNEAPOLIS VOR/DME115.3002E
STCr178/36.0ST CLOUD VOR/DME112.1003E

 
NDB name  Hdg/Dist  Freq  Var  ID
GLENCOE001/11.440703EGYL --. -.-- .-..

Airport Services

Fuel available: 100LL
FUEL AVAIL 24 HRS WITH CREDIT CARD.
Parking: tiedowns
Airframe service: NONE
Powerplant service: NONE
Bottled oxygen: NONE
Bulk oxygen: NONE

Runway Information

Runway 9/27

Dimensions: 3248 x 200 ft. / 990 x 61 m
Surface: turf, in good condition
Runway edge lights: low intensity
ANIMALS LIVING IN LIGHT BASES; SEVERAL BROKEN OR BENT OVER.
Runway edge markings: RY 09/27 MARKED WITH YELLOW CONES.
RUNWAY 9  RUNWAY 27
Latitude: 44-57.231000N44-57.231000N
Longitude: 094-04.299833W094-03.547000W
Elevation: 1030.0 ft.1030.0 ft.
Traffic pattern: leftleft
Markings: nonenone
Obstructions: 16 ft. road, 530 ft. from runway, 33:1 slope to clear17 ft. trees, 211 ft. from runway, 129 ft. right of centerline, 12:1 slope to clear

Airport Ownership and Management from official FAA records

Ownership: Publicly-owned
Owner: CITY OF WINSTED
PO BOX 126
WINSTED, MN 55395
Phone 320-485-2366
Manager: DAVID MEYER
PO BOX 126
WINSTED, MN 55395
Phone (320) 485-2201
(612) 986-2184

Airport Operational Statistics

Aircraft based on the field: 39
Single engine airplanes: 32
Ultralights: 7
  • ULTRALIGHT ACTIVITY ON & INVOF ARPT.
    
Aircraft operations: avg 37/day *
74% local general aviation
26% transient general aviation
* for 12-month period ending 31 May 2015

Additional Remarks

BE ALERT OF ULTRALIGHT TRAFFIC IN LOWER PATTERN.
CAUTION: PARACHUTE JUMPING ON FIELD.

Instrument Procedures

There are no published instrument procedures at 10D.

Some nearby airports with instrument procedures:

KGYL - Glencoe Municipal Airport (12 nm S)
KHCD - Hutchinson Municipal Airport-Butler Field (14 nm W)
KCFE - Buffalo Municipal Airport (16 nm NE)
KMGG - Maple Lake Municipal Airport-Bill Mavencamp Sr Field (18 nm N)
KLJF - Litchfield Municipal Airport (21 nm NW)
 
Loc | Ops | Rwys | IFR | FBO | Links
Com | Nav | Svcs | Stats | Notes


 
Area around 10D (Winsted Municipal Airport)
 
Road maps at: MapQuest Bing Google
 
Aerial photo
WARNING: Photo may not be current or correct
Aerial photo of 10D (Winsted Municipal Airport)
Photo by R. Johnson
Photo taken 16-Nov-2009

Do you have a better or more recent aerial photo of Winsted Municipal Airport that you would like to share? If so, please send us your photo.

 
Sectional chart

 
Airport distance calculator
Flying to Winsted Municipal Airport? Find the distance to fly.

From to 10D

Sunrise and sunset
Times for 16-Dec-2017
 Local
(UTC-6)
 Zulu
(UTC)
Morning civil twilight07:1513:15
Sunrise07:4913:49
Sunset16:3522:35
Evening civil twilight17:0823:08

Current date and time
Zulu (UTC)  17-Dec-2017 02:56:36
Local (UTC-6)  16-Dec-2017 20:56:36
 
METAR
KGYL 
12nm S 
170235Z AUTO 05003KT 7SM OVC012 M02/M02 A3007 RMK AO2 T10181020
KHCD 
14nm W 
170235Z AUTO 04004KT 7SM OVC011 M02/M04 A3008 RMK AO2 T10251041
KCFE 
16nm NE 
170235Z AUTO 02004KT 10SM BKN016 M04/M06 A3009 RMK AO2 T10381060
KMGG 
17nm N 
170235Z AUTO 04003KT 10SM OVC012 M03/M05 A3008 RMK AO2 T10341049
KLJF 
20nm NW 
170235Z AUTO 05003KT 7SM OVC012 M03/M04 A3008 RMK AO2
TAF
KMSP 
36nm E 
162045Z 1621/1724 04003KT P6SM OVC012 FM170300 05004KT 5SM BR OVC008 FM171500 04004KT 5SM BR BKN015 FM171800 00000KT P6SM OVC040
KSTC 
36nm N 
161732Z 1618/1718 VRB03KT P6SM SCT009 OVC012 FM170000 00000KT 4SM BR SCT004 OVC006 FM171500 00000KT P6SM BKN015
KMKT 
44nm S 
161732Z 1618/1718 07004KT P6SM BKN070 FM162200 02006KT 6SM BR OVC008 FM170000 03006KT 3SM BR OVC005 FM171700 VRB03KT P6SM BKN008
NOTAMs
Click for the latest NOTAMs
NOTAMs are issued by the DoD/FAA and will open in a separate window not controlled by AirNav.

 

 
 

FBO, Fuel Providers, and Aircraft Ground Support

  
 Business Name 
 
 Contact 
 
 Services / Description 
 
Fuel Prices
 
Comments
  
City of Winsted 320-485-2201
no information available

If you are affiliated with City of Winsted and would like to show here your services, contact info, web link, logo, and more, click here
100LL
SS $3.89 
 Updated 12-Dec-2017
 
   write
SS=Self service
Update Fuel Prices
 

Would you like to see your business listed on this page?

 If your business provides an interesting product or service to pilots, flight crews, aircraft, or users of the Winsted Municipal Airport, you should consider listing it here.  To start the listing process, click on the button below
 
Add a business
 

Other Pages about Winsted Municipal Airport

PDF page(s) from the Minnesota Airport Directory
 
Update a link
 
Copyright © AirNav, LLC. All rights reserved. Privacy Policy  Contact